sensor_id;sensor_type;location;lat;lon;timestamp;pressure;altitude;pressure_sealevel;temperature;humidity
13612;BME280;6877;51.436;6.774;2022-12-18T00:00:25;102510.72;;;-7.47;100.00
13612;BME280;6877;51.436;6.774;2022-12-18T00:02:56;102508.19;;;-7.27;100.00
13612;BME280;6877;51.436;6.774;2022-12-18T00:05:28;102521.16;;;-7.24;100.00
13612;BME280;6877;51.436;6.774;2022-12-18T00:07:54;102517.81;;;-7.23;100.00
13612;BME280;6877;51.436;6.774;2022-12-18T00:10:21;102525.84;;;-7.18;100.00
13612;BME280;6877;51.436;6.774;2022-12-18T00:12:47;102529.81;;;-7.21;100.00
13612;BME280;6877;51.436;6.774;2022-12-18T00:15:13;102524.06;;;-7.19;100.00
13612;BME280;6877;51.436;6.774;2022-12-18T00:17:45;102528.00;;;-7.23;100.00
13612;BME280;6877;51.436;6.774;2022-12-18T00:20:16;102513.25;;;-7.27;100.00
13612;BME280;6877;51.436;6.774;2022-12-18T00:22:53;102524.19;;;-7.17;100.00
13612;BME280;6877;51.436;6.774;2022-12-18T00:25:19;102514.53;;;-7.21;100.00
13612;BME280;6877;51.436;6.774;2022-12-18T00:27:46;102501.78;;;-7.11;100.00
13612;BME280;6877;51.436;6.774;2022-12-18T00:30:13;102493.63;;;-7.07;100.00
13612;BME280;6877;51.436;6.774;2022-12-18T00:32:44;102491.88;;;-7.08;100.00
13612;BME280;6877;51.436;6.774;2022-12-18T00:35:15;102497.19;;;-7.05;100.00
13612;BME280;6877;51.436;6.774;2022-12-18T00:37:42;102494.50;;;-7.07;100.00
13612;BME280;6877;51.436;6.774;2022-12-18T00:40:13;102493.38;;;-7.10;100.00
13612;BME280;6877;51.436;6.774;2022-12-18T00:42:45;102492.75;;;-7.08;100.00
13612;BME280;6877;51.436;6.774;2022-12-18T00:45:25;102497.94;;;-7.06;100.00
13612;BME280;6877;51.436;6.774;2022-12-18T00:47:52;102507.91;;;-7.19;100.00
13612;BME280;6877;51.436;6.774;2022-12-18T00:50:21;102505.91;;;-7.34;100.00
13612;BME280;6877;51.436;6.774;2022-12-18T00:52:52;102502.34;;;-7.46;100.00
13612;BME280;6877;51.436;6.774;2022-12-18T00:55:21;102504.41;;;-7.62;100.00
13612;BME280;6877;51.436;6.774;2022-12-18T00:57:53;102506.03;;;-7.73;100.00
13612;BME280;6877;51.436;6.774;2022-12-18T01:00:19;102511.53;;;-7.68;100.00
13612;BME280;6877;51.436;6.774;2022-12-18T01:02:46;102502.59;;;-7.63;100.00
13612;BME280;6877;51.436;6.774;2022-12-18T01:05:18;102514.19;;;-7.67;100.00
13612;BME280;6877;51.436;6.774;2022-12-18T01:07:44;102518.13;;;-7.81;100.00
13612;BME280;6877;51.436;6.774;2022-12-18T01:10:12;102521.41;;;-7.82;100.00
13612;BME280;6877;51.436;6.774;2022-12-18T01:12:44;102514.28;;;-7.86;100.00
13612;BME280;6877;51.436;6.774;2022-12-18T01:15:16;102506.66;;;-7.96;100.00
13612;BME280;6877;51.436;6.774;2022-12-18T01:17:53;102502.84;;;-8.01;100.00
13612;BME280;6877;51.436;6.774;2022-12-18T01:20:25;102505.63;;;-7.98;100.00
13612;BME280;6877;51.436;6.774;2022-12-18T01:22:56;102499.41;;;-7.92;100.00
13612;BME280;6877;51.436;6.774;2022-12-18T01:25:28;102490.03;;;-7.82;100.00
13612;BME280;6877;51.436;6.774;2022-12-18T01:27:59;102489.66;;;-7.77;100.00
13612;BME280;6877;51.436;6.774;2022-12-18T01:30:30;102494.09;;;-7.74;100.00
13612;BME280;6877;51.436;6.774;2022-12-18T01:32:57;102495.63;;;-7.76;100.00
13612;BME280;6877;51.436;6.774;2022-12-18T01:35:23;102494.47;;;-7.80;100.00
13612;BME280;6877;51.436;6.774;2022-12-18T01:37:55;102486.75;;;-7.81;100.00
13612;BME280;6877;51.436;6.774;2022-12-18T01:40:26;102492.19;;;-7.87;100.00
13612;BME280;6877;51.436;6.774;2022-12-18T01:42:58;102493.59;;;-7.80;100.00
13612;BME280;6877;51.436;6.774;2022-12-18T01:45:30;102490.41;;;-7.67;100.00
13612;BME280;6877;51.436;6.774;2022-12-18T01:48:06;102493.56;;;-7.60;100.00
13612;BME280;6877;51.436;6.774;2022-12-18T01:50:42;102485.81;;;-7.41;100.00
13612;BME280;6877;51.436;6.774;2022-12-18T01:53:21;102495.47;;;-7.47;100.00
13612;BME280;6877;51.436;6.774;2022-12-18T01:55:51;102498.66;;;-7.60;100.00
13612;BME280;6877;51.436;6.774;2022-12-18T01:58:19;102503.00;;;-7.69;100.00
13612;BME280;6877;51.436;6.774;2022-12-18T02:00:54;102511.63;;;-7.67;100.00
13612;BME280;6877;51.436;6.774;2022-12-18T02:03:26;102508.97;;;-7.68;100.00
13612;BME280;6877;51.436;6.774;2022-12-18T02:08:34;102497.91;;;-7.59;100.00
13612;BME280;6877;51.436;6.774;2022-12-18T02:11:40;102501.72;;;-7.43;100.00
13612;BME280;6877;51.436;6.774;2022-12-18T02:14:55;102506.00;;;-7.32;100.00
13612;BME280;6877;51.436;6.774;2022-12-18T02:17:07;102505.09;;;-7.23;100.00
13612;BME280;6877;51.436;6.774;2022-12-18T02:20:08;102506.38;;;-7.17;100.00
13612;BME280;6877;51.436;6.774;2022-12-18T02:27:45;102482.97;;;-7.13;100.00
13612;BME280;6877;51.436;6.774;2022-12-18T02:30:13;102478.13;;;-7.10;100.00
13612;BME280;6877;51.436;6.774;2022-12-18T02:32:44;102473.81;;;-7.11;100.00
13612;BME280;6877;51.436;6.774;2022-12-18T02:35:22;102473.53;;;-7.04;100.00
13612;BME280;6877;51.436;6.774;2022-12-18T02:37:50;102479.69;;;-6.80;100.00
13612;BME280;6877;51.436;6.774;2022-12-18T02:40:17;102479.03;;;-6.78;100.00
13612;BME280;6877;51.436;6.774;2022-12-18T02:42:49;102481.84;;;-6.85;100.00
13612;BME280;6877;51.436;6.774;2022-12-18T02:45:21;102483.56;;;-6.95;100.00
13612;BME280;6877;51.436;6.774;2022-12-18T02:47:52;102485.22;;;-7.06;100.00
13612;BME280;6877;51.436;6.774;2022-12-18T02:50:45;102492.63;;;-7.19;100.00
13612;BME280;6877;51.436;6.774;2022-12-18T02:53:33;102488.09;;;-7.34;100.00
13612;BME280;6877;51.436;6.774;2022-12-18T02:56:15;102490.63;;;-7.44;100.00
13612;BME280;6877;51.436;6.774;2022-12-18T03:04:11;102496.75;;;-7.42;100.00
13612;BME280;6877;51.436;6.774;2022-12-18T03:06:49;102486.22;;;-7.47;100.00
13612;BME280;6877;51.436;6.774;2022-12-18T03:09:44;102485.81;;;-7.41;100.00
13612;BME280;6877;51.436;6.774;2022-12-18T03:12:22;102476.41;;;-7.42;100.00
13612;BME280;6877;51.436;6.774;2022-12-18T03:14:55;102467.25;;;-7.40;100.00
13612;BME280;6877;51.436;6.774;2022-12-18T03:17:25;102468.13;;;-7.39;100.00
13612;BME280;6877;51.436;6.774;2022-12-18T03:19:53;102468.00;;;-7.41;100.00
13612;BME280;6877;51.436;6.774;2022-12-18T03:22:23;102464.56;;;-7.41;100.00
13612;BME280;6877;51.436;6.774;2022-12-18T03:24:53;102465.97;;;-7.45;100.00
13612;BME280;6877;51.436;6.774;2022-12-18T03:27:22;102456.16;;;-7.30;100.00
13612;BME280;6877;51.436;6.774;2022-12-18T03:30:02;102456.53;;;-7.26;100.00
13612;BME280;6877;51.436;6.774;2022-12-18T03:32:41;102463.66;;;-7.21;100.00
13612;BME280;6877;51.436;6.774;2022-12-18T03:35:12;102469.25;;;-7.26;100.00
13612;BME280;6877;51.436;6.774;2022-12-18T03:37:39;102469.38;;;-7.24;100.00
13612;BME280;6877;51.436;6.774;2022-12-18T03:40:06;102466.56;;;-7.17;100.00
13612;BME280;6877;51.436;6.774;2022-12-18T03:45:26;102460.00;;;-6.93;100.00
13612;BME280;6877;51.436;6.774;2022-12-18T03:48:01;102462.38;;;-6.84;100.00
13612;BME280;6877;51.436;6.774;2022-12-18T03:53:39;102457.13;;;-6.76;100.00
13612;BME280;6877;51.436;6.774;2022-12-18T03:56:14;102459.13;;;-6.71;100.00
13612;BME280;6877;51.436;6.774;2022-12-18T03:58:43;102453.28;;;-6.70;100.00
13612;BME280;6877;51.436;6.774;2022-12-18T04:01:16;102461.41;;;-6.64;100.00
13612;BME280;6877;51.436;6.774;2022-12-18T04:03:46;102459.75;;;-6.42;100.00
13612;BME280;6877;51.436;6.774;2022-12-18T04:06:19;102446.31;;;-6.29;100.00
13612;BME280;6877;51.436;6.774;2022-12-18T04:08:51;102446.53;;;-6.26;100.00
13612;BME280;6877;51.436;6.774;2022-12-18T04:11:18;102446.41;;;-6.27;99.95
13612;BME280;6877;51.436;6.774;2022-12-18T04:13:49;102454.34;;;-6.13;100.00
13612;BME280;6877;51.436;6.774;2022-12-18T04:16:21;102439.69;;;-6.15;99.76
13612;BME280;6877;51.436;6.774;2022-12-18T04:18:52;102451.00;;;-6.23;99.81
13612;BME280;6877;51.436;6.774;2022-12-18T04:21:24;102450.03;;;-6.36;99.35
13612;BME280;6877;51.436;6.774;2022-12-18T04:23:55;102450.75;;;-6.26;99.50
13612;BME280;6877;51.436;6.774;2022-12-18T04:26:27;102452.03;;;-6.32;99.40
13612;BME280;6877;51.436;6.774;2022-12-18T04:28:58;102455.00;;;-6.37;100.00
13612;BME280;6877;51.436;6.774;2022-12-18T04:31:29;102448.72;;;-6.31;99.90
13612;BME280;6877;51.436;6.774;2022-12-18T04:33:56;102448.59;;;-6.10;99.51
13612;BME280;6877;51.436;6.774;2022-12-18T04:36:27;102443.97;;;-6.04;98.59
13612;BME280;6877;51.436;6.774;2022-12-18T04:38:54;102442.94;;;-6.06;98.14
13612;BME280;6877;51.436;6.774;2022-12-18T04:41:21;102439.59;;;-6.17;97.83
13612;BME280;6877;51.436;6.774;2022-12-18T04:43:52;102437.00;;;-6.28;97.84
13612;BME280;6877;51.436;6.774;2022-12-18T04:46:23;102436.16;;;-6.17;98.40
13612;BME280;6877;51.436;6.774;2022-12-18T04:48:55;102435.06;;;-6.09;98.03
13612;BME280;6877;51.436;6.774;2022-12-18T04:51:21;102431.69;;;-5.98;97.95
13612;BME280;6877;51.436;6.774;2022-12-18T04:53:47;102439.31;;;-5.98;97.51
13612;BME280;6877;51.436;6.774;2022-12-18T04:56:15;102436.16;;;-6.17;97.26
13612;BME280;6877;51.436;6.774;2022-12-18T04:58:47;102436.66;;;-6.33;97.38
13612;BME280;6877;51.436;6.774;2022-12-18T05:01:18;102434.28;;;-6.42;97.71
13612;BME280;6877;51.436;6.774;2022-12-18T05:03:51;102426.66;;;-6.42;98.39
13612;BME280;6877;51.436;6.774;2022-12-18T05:06:22;102424.09;;;-6.42;98.63
13612;BME280;6877;51.436;6.774;2022-12-18T05:08:54;102426.81;;;-6.50;98.66
13612;BME280;6877;51.436;6.774;2022-12-18T05:11:25;102424.63;;;-6.68;98.75
13612;BME280;6877;51.436;6.774;2022-12-18T05:13:57;102420.91;;;-6.83;98.61
13612;BME280;6877;51.436;6.774;2022-12-18T05:16:28;102424.47;;;-6.91;99.22
13612;BME280;6877;51.436;6.774;2022-12-18T05:18:59;102418.81;;;-6.99;99.72
13612;BME280;6877;51.436;6.774;2022-12-18T05:21:26;102424.94;;;-7.07;99.70
13612;BME280;6877;51.436;6.774;2022-12-18T05:23:52;102416.06;;;-7.12;99.88
13612;BME280;6877;51.436;6.774;2022-12-18T05:26:19;102418.47;;;-7.14;100.00
13612;BME280;6877;51.436;6.774;2022-12-18T05:28:50;102420.38;;;-7.11;100.00
13612;BME280;6877;51.436;6.774;2022-12-18T05:31:22;102427.50;;;-7.17;100.00
13612;BME280;6877;51.436;6.774;2022-12-18T05:33:48;102426.00;;;-7.26;100.00
13612;BME280;6877;51.436;6.774;2022-12-18T05:36:15;102431.72;;;-7.28;100.00
13612;BME280;6877;51.436;6.774;2022-12-18T05:38:41;102434.16;;;-7.30;100.00
13612;BME280;6877;51.436;6.774;2022-12-18T05:41:08;102425.50;;;-7.32;100.00
13612;BME280;6877;51.436;6.774;2022-12-18T05:43:36;102435.44;;;-7.35;100.00
13612;BME280;6877;51.436;6.774;2022-12-18T05:46:10;102437.00;;;-7.37;100.00
13612;BME280;6877;51.436;6.774;2022-12-18T05:48:43;102440.28;;;-7.38;100.00
13612;BME280;6877;51.436;6.774;2022-12-18T05:51:13;102445.09;;;-7.41;100.00
13612;BME280;6877;51.436;6.774;2022-12-18T05:53:41;102454.28;;;-7.43;100.00
13612;BME280;6877;51.436;6.774;2022-12-18T05:56:11;102466.13;;;-7.43;100.00
13612;BME280;6877;51.436;6.774;2022-12-18T05:58:38;102459.88;;;-7.47;100.00
13612;BME280;6877;51.436;6.774;2022-12-18T06:01:18;102463.97;;;-7.49;100.00
13612;BME280;6877;51.436;6.774;2022-12-18T06:03:45;102459.88;;;-7.47;100.00
13612;BME280;6877;51.436;6.774;2022-12-18T06:06:17;102470.19;;;-7.46;100.00
13612;BME280;6877;51.436;6.774;2022-12-18T06:08:44;102475.03;;;-7.49;100.00
13612;BME280;6877;51.436;6.774;2022-12-18T06:11:11;102483.91;;;-7.54;100.00
13612;BME280;6877;51.436;6.774;2022-12-18T06:13:38;102492.06;;;-7.58;100.00
13612;BME280;6877;51.436;6.774;2022-12-18T06:16:05;102501.97;;;-7.61;100.00
13612;BME280;6877;51.436;6.774;2022-12-18T06:18:37;102506.19;;;-7.61;100.00
13612;BME280;6877;51.436;6.774;2022-12-18T06:21:03;102496.63;;;-7.64;100.00
13612;BME280;6877;51.436;6.774;2022-12-18T06:23:30;102493.06;;;-7.66;100.00
13612;BME280;6877;51.436;6.774;2022-12-18T06:25:56;102493.84;;;-7.67;100.00
13612;BME280;6877;51.436;6.774;2022-12-18T06:28:23;102481.75;;;-7.70;100.00
13612;BME280;6877;51.436;6.774;2022-12-18T06:30:52;102476.94;;;-7.77;100.00
13612;BME280;6877;51.436;6.774;2022-12-18T06:33:26;102470.81;;;-7.79;100.00
13612;BME280;6877;51.436;6.774;2022-12-18T06:35:54;102477.47;;;-7.81;100.00
13612;BME280;6877;51.436;6.774;2022-12-18T06:38:25;102470.81;;;-7.79;100.00
13612;BME280;6877;51.436;6.774;2022-12-18T06:40:51;102463.97;;;-7.80;100.00
13612;BME280;6877;51.436;6.774;2022-12-18T06:43:23;102460.41;;;-7.82;100.00
13612;BME280;6877;51.436;6.774;2022-12-18T06:45:59;102451.16;;;-7.81;100.00
13612;BME280;6877;51.436;6.774;2022-12-18T06:48:25;102451.53;;;-7.77;100.00
13612;BME280;6877;51.436;6.774;2022-12-18T06:50:52;102449.63;;;-7.79;100.00
13612;BME280;6877;51.436;6.774;2022-12-18T06:53:18;102441.00;;;-7.81;100.00
13612;BME280;6877;51.436;6.774;2022-12-18T06:55:50;102443.13;;;-7.86;100.00
13612;BME280;6877;51.436;6.774;2022-12-18T06:58:16;102440.47;;;-7.87;100.00
13612;BME280;6877;51.436;6.774;2022-12-18T07:00:48;102428.91;;;-7.84;100.00
13612;BME280;6877;51.436;6.774;2022-12-18T07:03:19;102426.91;;;-7.88;100.00
13612;BME280;6877;51.436;6.774;2022-12-18T07:05:51;102423.44;;;-7.88;100.00
13612;BME280;6877;51.436;6.774;2022-12-18T07:08:17;102429.44;;;-7.88;100.00
13612;BME280;6877;51.436;6.774;2022-12-18T07:10:44;102430.69;;;-7.93;100.00
13612;BME280;6877;51.436;6.774;2022-12-18T07:13:16;102428.25;;;-7.92;100.00
13612;BME280;6877;51.436;6.774;2022-12-18T07:15:47;102442.63;;;-7.92;100.00
13612;BME280;6877;51.436;6.774;2022-12-18T07:18:19;102440.34;;;-7.89;100.00
13612;BME280;6877;51.436;6.774;2022-12-18T07:20:45;102442.63;;;-7.92;100.00
13612;BME280;6877;51.436;6.774;2022-12-18T07:23:16;102437.28;;;-7.95;100.00
13612;BME280;6877;51.436;6.774;2022-12-18T07:25:48;102431.69;;;-8.01;100.00
13612;BME280;6877;51.436;6.774;2022-12-18T07:28:19;102429.03;;;-8.03;100.00
13612;BME280;6877;51.436;6.774;2022-12-18T07:30:46;102426.78;;;-8.10;100.00
13612;BME280;6877;51.436;6.774;2022-12-18T07:33:12;102430.19;;;-8.09;100.00
13612;BME280;6877;51.436;6.774;2022-12-18T07:35:43;102417.75;;;-8.06;100.00
13612;BME280;6877;51.436;6.774;2022-12-18T07:38:10;102416.47;;;-8.01;100.00
13612;BME280;6877;51.436;6.774;2022-12-18T07:40:36;102418.63;;;-7.96;100.00
13612;BME280;6877;51.436;6.774;2022-12-18T07:43:02;102418.75;;;-7.94;100.00
13612;BME280;6877;51.436;6.774;2022-12-18T07:45:34;102423.06;;;-7.93;100.00
13612;BME280;6877;51.436;6.774;2022-12-18T07:48:05;102427.78;;;-7.87;100.00
13612;BME280;6877;51.436;6.774;2022-12-18T07:50:31;102438.31;;;-7.83;100.00
13612;BME280;6877;51.436;6.774;2022-12-18T07:53:03;102427.13;;;-7.75;100.00
13612;BME280;6877;51.436;6.774;2022-12-18T07:55:31;102428.13;;;-7.62;100.00
13612;BME280;6877;51.436;6.774;2022-12-18T07:58:01;102416.91;;;-7.54;100.00
13612;BME280;6877;51.436;6.774;2022-12-18T08:00:33;102426.56;;;-7.40;100.00
13612;BME280;6877;51.436;6.774;2022-12-18T08:03:05;102422.47;;;-7.38;100.00
13612;BME280;6877;51.436;6.774;2022-12-18T08:05:36;102416.47;;;-7.28;100.00
13612;BME280;6877;51.436;6.774;2022-12-18T08:08:03;102402.13;;;-7.28;100.00
13612;BME280;6877;51.436;6.774;2022-12-18T08:10:29;102405.00;;;-7.23;100.00
13612;BME280;6877;51.436;6.774;2022-12-18T08:13:00;102399.78;;;-7.14;100.00
13612;BME280;6877;51.436;6.774;2022-12-18T08:15:27;102401.78;;;-7.10;100.00
13612;BME280;6877;51.436;6.774;2022-12-18T08:17:58;102392.09;;;-7.04;100.00
13612;BME280;6877;51.436;6.774;2022-12-18T08:20:25;102395.34;;;-6.95;100.00
13612;BME280;6877;51.436;6.774;2022-12-18T08:22:56;102396.19;;;-6.84;100.00
13612;BME280;6877;51.436;6.774;2022-12-18T08:25:29;102387.09;;;-6.70;100.00
13612;BME280;6877;51.436;6.774;2022-12-18T08:28:00;102380.50;;;-6.57;100.00
13612;BME280;6877;51.436;6.774;2022-12-18T08:30:31;102367.34;;;-6.51;100.00
13612;BME280;6877;51.436;6.774;2022-12-18T08:32:58;102360.41;;;-6.42;100.00
13612;BME280;6877;51.436;6.774;2022-12-18T08:35:24;102360.22;;;-6.33;100.00
13612;BME280;6877;51.436;6.774;2022-12-18T08:37:55;102356.28;;;-6.18;100.00
13612;BME280;6877;51.436;6.774;2022-12-18T08:40:22;102356.50;;;-6.03;100.00
13612;BME280;6877;51.436;6.774;2022-12-18T08:42:53;102358.06;;;-5.82;100.00
13612;BME280;6877;51.436;6.774;2022-12-18T08:45:43;102362.97;;;-5.61;100.00
13612;BME280;6877;51.436;6.774;2022-12-18T08:48:14;102360.09;;;-5.42;100.00
13612;BME280;6877;51.436;6.774;2022-12-18T08:50:41;102367.19;;;-5.26;99.40
13612;BME280;6877;51.436;6.774;2022-12-18T08:53:12;102373.03;;;-5.04;99.44
13612;BME280;6877;51.436;6.774;2022-12-18T08:55:44;102366.16;;;-4.80;98.80
13612;BME280;6877;51.436;6.774;2022-12-18T08:58:15;102370.25;;;-4.45;98.37
13612;BME280;6877;51.436;6.774;2022-12-18T09:00:46;102364.69;;;-3.88;98.16
13612;BME280;6877;51.436;6.774;2022-12-18T09:03:19;102359.63;;;-3.21;96.92
13612;BME280;6877;51.436;6.774;2022-12-18T09:05:45;102358.84;;;-2.79;93.12
13612;BME280;6877;51.436;6.774;2022-12-18T09:08:17;102341.88;;;-2.49;92.36
13612;BME280;6877;51.436;6.774;2022-12-18T09:10:45;102333.50;;;-2.31;88.35
13612;BME280;6877;51.436;6.774;2022-12-18T09:13:17;102328.47;;;-2.30;87.99
13612;BME280;6877;51.436;6.774;2022-12-18T09:15:51;102335.38;;;-2.29;86.71
13612;BME280;6877;51.436;6.774;2022-12-18T09:18:23;102336.34;;;-2.27;85.40
13612;BME280;6877;51.436;6.774;2022-12-18T09:20:50;102339.31;;;-2.34;82.66
13612;BME280;6877;51.436;6.774;2022-12-18T09:23:18;102333.44;;;-2.33;82.90
13612;BME280;6877;51.436;6.774;2022-12-18T09:25:45;102336.69;;;-2.21;84.54
13612;BME280;6877;51.436;6.774;2022-12-18T09:28:18;102335.56;;;-1.96;83.68
13612;BME280;6877;51.436;6.774;2022-12-18T09:30:50;102341.47;;;-1.68;82.55
13612;BME280;6877;51.436;6.774;2022-12-18T09:33:21;102333.50;;;-1.57;79.86
13612;BME280;6877;51.436;6.774;2022-12-18T09:35:48;102334.25;;;-1.44;79.83
13612;BME280;6877;51.436;6.774;2022-12-18T09:38:16;102341.31;;;-1.25;78.32
13612;BME280;6877;51.436;6.774;2022-12-18T09:40:45;102343.09;;;-1.07;79.25
13612;BME280;6877;51.436;6.774;2022-12-18T09:43:18;102347.31;;;-0.93;78.22
13612;BME280;6877;51.436;6.774;2022-12-18T09:45:52;102333.59;;;-0.77;77.45
13612;BME280;6877;51.436;6.774;2022-12-18T09:48:29;102326.25;;;-0.70;73.63
13612;BME280;6877;51.436;6.774;2022-12-18T09:51:11;102308.13;;;-0.56;72.88
13612;BME280;6877;51.436;6.774;2022-12-18T09:53:44;102298.69;;;-0.39;72.44
13612;BME280;6877;51.436;6.774;2022-12-18T09:56:19;102299.69;;;-0.19;72.20
13612;BME280;6877;51.436;6.774;2022-12-18T09:58:59;102309.03;;;0.13;69.17
13612;BME280;6877;51.436;6.774;2022-12-18T10:01:28;102317.63;;;0.67;69.17
13612;BME280;6877;51.436;6.774;2022-12-18T10:04:00;102306.78;;;1.11;68.23
13612;BME280;6877;51.436;6.774;2022-12-18T10:06:40;102299.84;;;1.30;67.29
13612;BME280;6877;51.436;6.774;2022-12-18T10:14:56;102288.13;;;1.57;65.98
13612;BME280;6877;51.436;6.774;2022-12-18T10:20:14;102296.00;;;1.60;64.23
13612;BME280;6877;51.436;6.774;2022-12-18T10:22:50;102281.03;;;1.52;64.45
13612;BME280;6877;51.436;6.774;2022-12-18T10:28:14;102269.44;;;1.42;63.90
13612;BME280;6877;51.436;6.774;2022-12-18T10:30:46;102263.19;;;1.37;63.62
13612;BME280;6877;51.436;6.774;2022-12-18T10:33:21;102259.75;;;1.17;62.49
13612;BME280;6877;51.436;6.774;2022-12-18T10:35:53;102261.84;;;1.06;62.50
13612;BME280;6877;51.436;6.774;2022-12-18T10:38:27;102257.16;;;0.98;62.53
13612;BME280;6877;51.436;6.774;2022-12-18T10:41:01;102261.22;;;0.92;61.74
13612;BME280;6877;51.436;6.774;2022-12-18T10:43:29;102263.00;;;0.93;62.56
13612;BME280;6877;51.436;6.774;2022-12-18T10:51:06;102246.19;;;1.02;62.13
13612;BME280;6877;51.436;6.774;2022-12-18T10:53:35;102235.91;;;1.03;62.10
13612;BME280;6877;51.436;6.774;2022-12-18T10:56:04;102232.13;;;0.95;61.06
13612;BME280;6877;51.436;6.774;2022-12-18T10:58:37;102232.00;;;0.92;61.50
13612;BME280;6877;51.436;6.774;2022-12-18T11:01:11;102222.34;;;0.88;63.20
13612;BME280;6877;51.436;6.774;2022-12-18T11:03:58;102223.13;;;0.85;62.51
13612;BME280;6877;51.436;6.774;2022-12-18T11:06:25;102223.56;;;0.77;60.99
13612;BME280;6877;51.436;6.774;2022-12-18T11:09:02;102221.88;;;0.77;62.08
13612;BME280;6877;51.436;6.774;2022-12-18T11:11:29;102219.34;;;0.79;61.86
13612;BME280;6877;51.436;6.774;2022-12-18T11:16:44;102216.53;;;0.92;60.69
13612;BME280;6877;51.436;6.774;2022-12-18T11:19:30;102213.81;;;1.08;60.98
13612;BME280;6877;51.436;6.774;2022-12-18T11:21:58;102210.63;;;1.14;59.93
13612;BME280;6877;51.436;6.774;2022-12-18T11:24:30;102212.38;;;1.15;59.56
13612;BME280;6877;51.436;6.774;2022-12-18T11:27:16;102204.81;;;1.20;60.36
13612;BME280;6877;51.436;6.774;2022-12-18T11:29:44;102197.44;;;1.27;60.95
13612;BME280;6877;51.436;6.774;2022-12-18T11:32:27;102187.28;;;1.32;59.81
13612;BME280;6877;51.436;6.774;2022-12-18T11:38:06;102172.78;;;1.34;59.28
13612;BME280;6877;51.436;6.774;2022-12-18T11:40:44;102162.59;;;1.37;60.55
13612;BME280;6877;51.436;6.774;2022-12-18T11:43:25;102163.06;;;1.28;60.84
13612;BME280;6877;51.436;6.774;2022-12-18T11:46:12;102156.91;;;1.25;61.79
13612;BME280;6877;51.436;6.774;2022-12-18T11:48:49;102162.94;;;1.25;61.75
13612;BME280;6877;51.436;6.774;2022-12-18T11:51:29;102162.69;;;1.19;60.04
13612;BME280;6877;51.436;6.774;2022-12-18T11:53:59;102173.00;;;1.19;60.54
13612;BME280;6877;51.436;6.774;2022-12-18T11:56:32;102154.91;;;1.18;61.50
13612;BME280;6877;51.436;6.774;2022-12-18T12:05:11;102167.09;;;1.22;58.69
13612;BME280;6877;51.436;6.774;2022-12-18T12:10:48;102152.59;;;1.24;59.11
13612;BME280;6877;51.436;6.774;2022-12-18T12:18:53;102159.56;;;1.26;60.17
13612;BME280;6877;51.436;6.774;2022-12-18T12:21:31;102150.13;;;1.27;59.58
13612;BME280;6877;51.436;6.774;2022-12-18T12:24:10;102139.44;;;1.18;58.74
13612;BME280;6877;51.436;6.774;2022-12-18T12:32:26;102129.22;;;1.00;59.25
13612;BME280;6877;51.436;6.774;2022-12-18T12:40:14;102135.81;;;0.93;60.47
13612;BME280;6877;51.436;6.774;2022-12-18T12:42:52;102119.47;;;0.92;60.36
13612;BME280;6877;51.436;6.774;2022-12-18T12:45:48;102117.63;;;0.90;59.21
13612;BME280;6877;51.436;6.774;2022-12-18T12:51:19;102114.66;;;0.81;60.10
13612;BME280;6877;51.436;6.774;2022-12-18T12:53:48;102123.13;;;0.78;59.49
13612;BME280;6877;51.436;6.774;2022-12-18T12:56:17;102116.97;;;0.75;59.29
13612;BME280;6877;51.436;6.774;2022-12-18T12:58:53;102125.38;;;0.71;59.44
13612;BME280;6877;51.436;6.774;2022-12-18T13:07:15;102123.09;;;0.57;60.06
13612;BME280;6877;51.436;6.774;2022-12-18T13:10:12;102111.78;;;0.54;60.59
13612;BME280;6877;51.436;6.774;2022-12-18T13:12:55;102109.13;;;0.52;60.40
13612;BME280;6877;51.436;6.774;2022-12-18T13:15:37;102106.50;;;0.51;60.66
13612;BME280;6877;51.436;6.774;2022-12-18T13:20:46;102093.66;;;0.52;61.47
13612;BME280;6877;51.436;6.774;2022-12-18T13:25:51;102084.97;;;0.50;60.85
13612;BME280;6877;51.436;6.774;2022-12-18T13:29:07;102083.09;;;0.46;60.89
13612;BME280;6877;51.436;6.774;2022-12-18T13:31:09;102076.06;;;0.42;60.78
13612;BME280;6877;51.436;6.774;2022-12-18T13:33:49;102072.59;;;0.41;61.17
13612;BME280;6877;51.436;6.774;2022-12-18T13:41:47;102046.44;;;0.32;61.62
13612;BME280;6877;51.436;6.774;2022-12-18T13:44:33;102051.78;;;0.37;60.36
13612;BME280;6877;51.436;6.774;2022-12-18T13:47:02;102044.59;;;0.30;60.00
13612;BME280;6877;51.436;6.774;2022-12-18T13:52:19;102042.78;;;0.27;60.48
13612;BME280;6877;51.436;6.774;2022-12-18T13:54:51;102023.88;;;0.27;60.74
13612;BME280;6877;51.436;6.774;2022-12-18T13:57:36;102032.44;;;0.26;60.41
13612;BME280;6877;51.436;6.774;2022-12-18T14:02:50;102028.75;;;0.20;61.02
13612;BME280;6877;51.436;6.774;2022-12-18T14:05:26;102029.63;;;0.21;61.16
13612;BME280;6877;51.436;6.774;2022-12-18T14:07:54;102020.06;;;0.18;60.52
13612;BME280;6877;51.436;6.774;2022-12-18T14:10:21;102014.78;;;0.15;61.23
13612;BME280;6877;51.436;6.774;2022-12-18T14:12:49;102022.50;;;0.15;60.93
13612;BME280;6877;51.436;6.774;2022-12-18T14:17:55;102021.50;;;0.12;61.92
13612;BME280;6877;51.436;6.774;2022-12-18T14:20:25;102016.16;;;0.07;61.44
13612;BME280;6877;51.436;6.774;2022-12-18T14:22:51;102016.03;;;0.04;61.28
13612;BME280;6877;51.436;6.774;2022-12-18T14:25:22;102009.09;;;0.03;61.37
13612;BME280;6877;51.436;6.774;2022-12-18T14:28:25;101998.00;;;0.04;61.29
13612;BME280;6877;51.436;6.774;2022-12-18T14:30:53;101995.31;;;0.01;61.79
13612;BME280;6877;51.436;6.774;2022-12-18T14:33:23;101990.88;;;-0.02;61.40
13612;BME280;6877;51.436;6.774;2022-12-18T14:35:56;101990.84;;;-0.03;61.23
13612;BME280;6877;51.436;6.774;2022-12-18T14:38:34;101989.88;;;-0.05;61.10
13612;BME280;6877;51.436;6.774;2022-12-18T14:43:32;101999.22;;;-0.07;61.55
13612;BME280;6877;51.436;6.774;2022-12-18T14:46:00;102002.47;;;-0.11;62.10
13612;BME280;6877;51.436;6.774;2022-12-18T14:48:41;101999.03;;;-0.12;61.55
13612;BME280;6877;51.436;6.774;2022-12-18T14:51:28;101987.03;;;-0.11;61.24
13612;BME280;6877;51.436;6.774;2022-12-18T14:54:02;101980.91;;;-0.13;61.19
13612;BME280;6877;51.436;6.774;2022-12-18T14:56:31;101982.56;;;-0.15;61.54
13612;BME280;6877;51.436;6.774;2022-12-18T14:59:04;101972.13;;;-0.18;61.61